MSC Shirley — D5IY3 — position and weather

sailwx.info

Track history (hours):
 
Tides and Currents Weather Stations Pressure Air Temp Water Temp Dewpoint Dewpoint Depression Visibility Wind Speed Wind Dir Waves Ship Positions

MSC Shirley

Last reported at 2018-Jun-24 03:29 UTC. Time now 2018-Jun-24 03:32 UTC.
Position N 38°29' E 015°42'.

Length 188 m; draft 8.3 m.

Type: Ship (hazmat cat A). MMSI: 636017022.

Date/timePositionNaut miles runAvg speedWind from/ knotsBaromVisibWave heightAir tempDewpointWater temp
2018-Jun-24 03:29N 38°29' E 015°42'0 1.0
2018-Jun-24 03:00N 38°29' E 015°42'0 0.9
2018-Jun-24 02:31N 38°28' E 015°42'0 0.7
2018-Jun-24 02:00N 38°28' E 015°43'0 0.6
2018-Jun-24 01:30N 38°28' E 015°43'0 0.2
2018-Jun-24 01:01N 38°28' E 015°43'4 8.2
2018-Jun-24 00:29N 38°31' E 015°39'1 1.4
2018-Jun-23 23:57N 38°30' E 015°40'1 1.6
2018-Jun-23 23:28N 38°30' E 015°40'1 1.4
2018-Jun-23 23:00N 38°29' E 015°41'1 1.2
2018-Jun-23 22:25N 38°29' E 015°42'0 0.4
2018-Jun-23 22:00N 38°29' E 015°42'0 0.8
2018-Jun-23 21:29N 38°28' E 015°41'0 0.3
2018-Jun-23 21:00N 38°28' E 015°41'0 0.5
2018-Jun-23 20:30N 38°28' E 015°42'2 4.5
2018-Jun-23 19:58N 38°31' E 015°41'5 9.5
2018-Jun-23 19:25N 38°36' E 015°40'3 5.6
2018-Jun-23 18:53N 38°39' E 015°40'1 1.7
2018-Jun-23 18:26N 38°38' E 015°40'1 1.8
2018-Jun-23 18:00N 38°37' E 015°39'1 1.8
2018-Jun-23 17:23N 38°36' E 015°39'1 1.7
2018-Jun-23 16:59N 38°36' E 015°39'1 1.8
2018-Jun-23 16:30N 38°35' E 015°39'1 1.8
2018-Jun-23 16:00N 38°34' E 015°38'1 1.5
2018-Jun-23 15:28N 38°33' E 015°38'1 1.3
2018-Jun-23 14:59N 38°32' E 015°38'0 0.8
2018-Jun-23 14:30N 38°32' E 015°38'0 0.6
2018-Jun-23 13:59N 38°32' E 015°38'0 0.5
2018-Jun-23 13:28N 38°32' E 015°39'0 0.5
2018-Jun-23 13:00N 38°32' E 015°39'0 0.4
2018-Jun-23 12:30N 38°32' E 015°39'0 0.4
2018-Jun-23 11:59N 38°32' E 015°39'0 0.5
2018-Jun-23 11:30N 38°33' E 015°39'0 0.5
2018-Jun-23 10:58N 38°33' E 015°40'0 0.3
2018-Jun-23 10:14N 38°33' E 015°40'0 0.3
2018-Jun-23 09:55N 38°33' E 015°40'0 0.2
2018-Jun-23 09:29N 38°33' E 015°40'0 0.2
2018-Jun-23 08:59N 38°33' E 015°40'0 0.2
2018-Jun-23 08:29N 38°33' E 015°40'0 0.2
2018-Jun-23 07:56N 38°33' E 015°40'0 0.2
2018-Jun-23 07:24N 38°34' E 015°40'0 0.3
2018-Jun-23 06:52N 38°34' E 015°40'0 0.2
2018-Jun-23 06:30N 38°34' E 015°41'0 0.3
2018-Jun-23 05:58N 38°33' E 015°41'0 0.3
2018-Jun-23 05:15N 38°33' E 015°41'0 0.5
2018-Jun-23 04:54N 38°33' E 015°41'5 4.5
2018-Jun-23 03:51N 38°29' E 015°42'1 0.4
2018-Jun-23 01:54N 38°29' E 015°42'3 0.3
2018-Jun-22 15:33N 38°29' E 015°46'210.2
2018-Jun-22 15:21N 38°27' E 015°47'513.8
2018-Jun-22 15:00N 38°23' E 015°45'813.7
2018-Jun-22 14:26N 38°15' E 015°41'613.7
2018-Jun-22 14:01N 38°10' E 015°37'5 9.2
2018-Jun-22 13:30N 38°06' E 015°36'4 7.9
2018-Jun-22 13:00N 38°02' E 015°36'4 7.4
2018-Jun-22 12:30N 37°58' E 015°35'4 8.0
2018-Jun-22 11:58N 37°54' E 015°36'510.4
2018-Jun-22 11:29N 37°51' E 015°41'510.4
2018-Jun-22 11:00N 37°49' E 015°47'510.6
2018-Jun-22 10:30N 37°47' E 015°53'610.7
2018-Jun-22 09:57N 37°45' E 016°01'36213.7
2018-Jun-21 07:35N 36°40' E 023°27'116.1
2018-Jun-21 07:30N 36°41' E 023°28'3516.1
2018-Jun-21 05:21N 37°11' E 023°52'2716.6
2018-Jun-21 03:42N 37°34' E 024°10'1216.3
2018-Jun-21 02:57N 37°44' E 024°18'  
2018-Jun-18 19:27N 41°26' E 028°59'1 1.1
2018-Jun-18 18:56N 41°26' E 028°59'  
2018-Jun-15 14:45N 42°17' E 039°42'516.2
2018-Jun-15 14:26N 42°20' E 039°35'716.1
2018-Jun-15 14:00N 42°22' E 039°27'1217.1
2018-Jun-15 13:17N 42°28' E 039°12'517.2
2018-Jun-15 13:00N 42°30' E 039°06'5117.2
2018-Jun-15 10:01N 42°52' E 038°03'5317.0
2018-Jun-15 06:54N 43°14' E 036°57'717.1
2018-Jun-15 06:29N 43°17' E 036°48'817.1
2018-Jun-15 06:00N 43°21' E 036°38'917.1
2018-Jun-15 05:30N 43°24' E 036°27'917.1
2018-Jun-15 05:01N 43°28' E 036°17'917.1
2018-Jun-15 04:31N 43°31' E 036°06'917.0
2018-Jun-15 04:01N 43°34' E 035°55'917.0
2018-Jun-15 03:30N 43°37' E 035°44'917.2
2018-Jun-15 03:01N 43°40' E 035°32'917.6
2018-Jun-15 02:30N 43°43' E 035°21'1017.3
2018-Jun-15 01:55N 43°46' E 035°08'717.2
2018-Jun-15 01:30N 43°48' E 034°58'917.1
2018-Jun-15 01:00N 43°51' E 034°47'916.9
2018-Jun-15 00:29N 43°54' E 034°36'13422.3
2018-Jun-14 18:28N 45°17' E 032°08'2655.2
2018-Jun-14 18:00N 45°35' E 031°42'1914.6
2018-Jun-14 16:44N 45°50' E 031°25'2 2.1
2018-Jun-14 15:51N 45°51' E 031°24'1 2.5
2018-Jun-14 15:30N 45°52' E 031°23'2 2.6
2018-Jun-14 14:55N 45°53' E 031°21'1 2.1
2018-Jun-14 14:31N 45°54' E 031°21'1 2.2
2018-Jun-14 13:57N 45°55' E 031°20'1 2.1
2018-Jun-14 13:30N 45°55' E 031°19'1 2.1
2018-Jun-14 13:00N 45°56' E 031°18'914.0
2018-Jun-14 12:21N 46°03' E 031°10'1113.9
2018-Jun-14 11:33N 46°11' E 030°59'113.8
2018-Jun-14 11:28N 46°12' E 030°58'613.6
2018-Jun-14 11:00N 46°16' E 030°50'612.7
2018-Jun-14 10:29N 46°19' E 030°42'2 3.6
2018-Jun-14 10:00N 46°20' E 030°40'0 0.0
2018-Jun-14 08:14N 46°20' E 030°40'0 0.0
2018-Jun-14 07:53N 46°20' E 030°40'0 0.0
2018-Jun-14 07:02N 46°20' E 030°40'0 0.0
2018-Jun-14 06:53N 46°20' E 030°40'0 0.0
2018-Jun-14 06:14N 46°20' E 030°40'0 0.0
2018-Jun-14 05:59N 46°20' E 030°40'0 0.0
2018-Jun-14 04:53N 46°20' E 030°40'0 0.0
2018-Jun-14 04:29N 46°20' E 030°40'0 0.0
2018-Jun-14 03:59N 46°20' E 030°40'  
Track history (hours):
 
Tides and Currents Weather Stations Pressure Air Temp Water Temp Dewpoint Dewpoint Depression Visibility Wind Speed Wind Dir Waves Ship Positions

MSC Shirley

Last reported at 2018-Jun-24 03:29 UTC. Time now 2018-Jun-24 03:32 UTC.
Position N 38°29' E 015°42'.

Length 188 m; draft 8.3 m.

Type: Ship (hazmat cat A). MMSI: 636017022.

Date/timePositionNaut miles runAvg speedWind from/ knotsBaromVisibWave heightAir tempDewpointWater temp
2018-Jun-24 03:29N 38°29' E 015°42'0 1.0
2018-Jun-24 03:00N 38°29' E 015°42'0 0.9
2018-Jun-24 02:31N 38°28' E 015°42'0 0.7
2018-Jun-24 02:00N 38°28' E 015°43'0 0.6
2018-Jun-24 01:30N 38°28' E 015°43'0 0.2
2018-Jun-24 01:01N 38°28' E 015°43'4 8.2
2018-Jun-24 00:29N 38°31' E 015°39'1 1.4
2018-Jun-23 23:57N 38°30' E 015°40'1 1.6
2018-Jun-23 23:28N 38°30' E 015°40'1 1.4
2018-Jun-23 23:00N 38°29' E 015°41'1 1.2
2018-Jun-23 22:25N 38°29' E 015°42'0 0.4
2018-Jun-23 22:00N 38°29' E 015°42'0 0.8
2018-Jun-23 21:29N 38°28' E 015°41'0 0.3
2018-Jun-23 21:00N 38°28' E 015°41'0 0.5
2018-Jun-23 20:30N 38°28' E 015°42'2 4.5
2018-Jun-23 19:58N 38°31' E 015°41'5 9.5
2018-Jun-23 19:25N 38°36' E 015°40'3 5.6
2018-Jun-23 18:53N 38°39' E 015°40'1 1.7
2018-Jun-23 18:26N 38°38' E 015°40'1 1.8
2018-Jun-23 18:00N 38°37' E 015°39'1 1.8
2018-Jun-23 17:23N 38°36' E 015°39'1 1.7
2018-Jun-23 16:59N 38°36' E 015°39'1 1.8
2018-Jun-23 16:30N 38°35' E 015°39'1 1.8
2018-Jun-23 16:00N 38°34' E 015°38'1 1.5
2018-Jun-23 15:28N 38°33' E 015°38'1 1.3
2018-Jun-23 14:59N 38°32' E 015°38'0 0.8
2018-Jun-23 14:30N 38°32' E 015°38'0 0.6
2018-Jun-23 13:59N 38°32' E 015°38'0 0.5
2018-Jun-23 13:28N 38°32' E 015°39'0 0.5
2018-Jun-23 13:00N 38°32' E 015°39'0 0.4
2018-Jun-23 12:30N 38°32' E 015°39'0 0.4
2018-Jun-23 11:59N 38°32' E 015°39'0 0.5
2018-Jun-23 11:30N 38°33' E 015°39'0 0.5
2018-Jun-23 10:58N 38°33' E 015°40'0 0.3
2018-Jun-23 10:14N 38°33' E 015°40'0 0.3
2018-Jun-23 09:55N 38°33' E 015°40'0 0.2
2018-Jun-23 09:29N 38°33' E 015°40'0 0.2
2018-Jun-23 08:59N 38°33' E 015°40'0 0.2
2018-Jun-23 08:29N 38°33' E 015°40'0 0.2
2018-Jun-23 07:56N 38°33' E 015°40'0 0.2
2018-Jun-23 07:24N 38°34' E 015°40'0 0.3
2018-Jun-23 06:52N 38°34' E 015°40'0 0.2
2018-Jun-23 06:30N 38°34' E 015°41'0 0.3
2018-Jun-23 05:58N 38°33' E 015°41'0 0.3
2018-Jun-23 05:15N 38°33' E 015°41'0 0.5
2018-Jun-23 04:54N 38°33' E 015°41'5 4.5
2018-Jun-23 03:51N 38°29' E 015°42'1 0.4
2018-Jun-23 01:54N 38°29' E 015°42'3 0.3
2018-Jun-22 15:33N 38°29' E 015°46'210.2
2018-Jun-22 15:21N 38°27' E 015°47'513.8
2018-Jun-22 15:00N 38°23' E 015°45'813.7
2018-Jun-22 14:26N 38°15' E 015°41'613.7
2018-Jun-22 14:01N 38°10' E 015°37'5 9.2
2018-Jun-22 13:30N 38°06' E 015°36'4 7.9
2018-Jun-22 13:00N 38°02' E 015°36'4 7.4
2018-Jun-22 12:30N 37°58' E 015°35'4 8.0
2018-Jun-22 11:58N 37°54' E 015°36'510.4
2018-Jun-22 11:29N 37°51' E 015°41'510.4
2018-Jun-22 11:00N 37°49' E 015°47'510.6
2018-Jun-22 10:30N 37°47' E 015°53'610.7
2018-Jun-22 09:57N 37°45' E 016°01'36213.7
2018-Jun-21 07:35N 36°40' E 023°27'116.1
2018-Jun-21 07:30N 36°41' E 023°28'3516.1
2018-Jun-21 05:21N 37°11' E 023°52'2716.6
2018-Jun-21 03:42N 37°34' E 024°10'1216.3
2018-Jun-21 02:57N 37°44' E 024°18'  
2018-Jun-18 19:27N 41°26' E 028°59'1 1.1
2018-Jun-18 18:56N 41°26' E 028°59'  
2018-Jun-15 14:45N 42°17' E 039°42'516.2
2018-Jun-15 14:26N 42°20' E 039°35'716.1
2018-Jun-15 14:00N 42°22' E 039°27'1217.1
2018-Jun-15 13:17N 42°28' E 039°12'517.2
2018-Jun-15 13:00N 42°30' E 039°06'5117.2
2018-Jun-15 10:01N 42°52' E 038°03'5317.0
2018-Jun-15 06:54N 43°14' E 036°57'717.1
2018-Jun-15 06:29N 43°17' E 036°48'817.1
2018-Jun-15 06:00N 43°21' E 036°38'917.1
2018-Jun-15 05:30N 43°24' E 036°27'917.1
2018-Jun-15 05:01N 43°28' E 036°17'917.1
2018-Jun-15 04:31N 43°31' E 036°06'917.0
2018-Jun-15 04:01N 43°34' E 035°55'917.0
2018-Jun-15 03:30N 43°37' E 035°44'917.2
2018-Jun-15 03:01N 43°40' E 035°32'917.6
2018-Jun-15 02:30N 43°43' E 035°21'1017.3
2018-Jun-15 01:55N 43°46' E 035°08'717.2
2018-Jun-15 01:30N 43°48' E 034°58'917.1
2018-Jun-15 01:00N 43°51' E 034°47'916.9
2018-Jun-15 00:29N 43°54' E 034°36'13422.3
2018-Jun-14 18:28N 45°17' E 032°08'2655.2
2018-Jun-14 18:00N 45°35' E 031°42'1914.6
2018-Jun-14 16:44N 45°50' E 031°25'2 2.1
2018-Jun-14 15:51N 45°51' E 031°24'1 2.5
2018-Jun-14 15:30N 45°52' E 031°23'2 2.6
2018-Jun-14 14:55N 45°53' E 031°21'1 2.1
2018-Jun-14 14:31N 45°54' E 031°21'1 2.2
2018-Jun-14 13:57N 45°55' E 031°20'1 2.1
2018-Jun-14 13:30N 45°55' E 031°19'1 2.1
2018-Jun-14 13:00N 45°56' E 031°18'914.0
2018-Jun-14 12:21N 46°03' E 031°10'1113.9
2018-Jun-14 11:33N 46°11' E 030°59'113.8
2018-Jun-14 11:28N 46°12' E 030°58'613.6
2018-Jun-14 11:00N 46°16' E 030°50'612.7
2018-Jun-14 10:29N 46°19' E 030°42'2 3.6
2018-Jun-14 10:00N 46°20' E 030°40'0 0.0
2018-Jun-14 08:14N 46°20' E 030°40'0 0.0
2018-Jun-14 07:53N 46°20' E 030°40'0 0.0
2018-Jun-14 07:02N 46°20' E 030°40'0 0.0
2018-Jun-14 06:53N 46°20' E 030°40'0 0.0
2018-Jun-14 06:14N 46°20' E 030°40'0 0.0
2018-Jun-14 05:59N 46°20' E 030°40'0 0.0
2018-Jun-14 04:53N 46°20' E 030°40'0 0.0
2018-Jun-14 04:29N 46°20' E 030°40'0 0.0
2018-Jun-14 03:59N 46°20' E 030°40'  

Dump ship's entire track history